sensor_id;sensor_type;location;lat;lon;timestamp;pressure;altitude;pressure_sealevel;temperature;humidity
69187;BME280;56301;56.864;60.554;2022-11-21T00:00:31;98802.28;;;25.35;34.87
69187;BME280;56301;56.864;60.554;2022-11-21T00:02:53;98801.63;;;25.33;35.67
69187;BME280;56301;56.864;60.554;2022-11-21T00:05:18;98804.53;;;25.31;35.67
69187;BME280;56301;56.864;60.554;2022-11-21T00:07:41;98793.50;;;25.33;34.96
69187;BME280;56301;56.864;60.554;2022-11-21T00:10:03;98804.53;;;25.31;36.03
69187;BME280;56301;56.864;60.554;2022-11-21T00:12:26;98803.84;;;25.29;36.68
69187;BME280;56301;56.864;60.554;2022-11-21T00:14:48;98805.72;;;25.29;36.50
69187;BME280;56301;56.864;60.554;2022-11-21T00:17:11;98807.41;;;25.30;36.66
69187;BME280;56301;56.864;60.554;2022-11-21T00:19:33;98795.06;;;25.27;36.16
69187;BME280;56301;56.864;60.554;2022-11-21T00:21:55;98801.97;;;25.30;36.03
69187;BME280;56301;56.864;60.554;2022-11-21T00:24:18;98808.22;;;25.30;36.09
69187;BME280;56301;56.864;60.554;2022-11-21T00:26:40;98800.94;;;25.31;35.78
69187;BME280;56301;56.864;60.554;2022-11-21T00:29:03;98801.97;;;25.30;35.88
69187;BME280;56301;56.864;60.554;2022-11-21T00:31:25;98804.69;;;25.30;36.08
69187;BME280;56301;56.864;60.554;2022-11-21T00:33:47;98800.69;;;25.26;36.08
69187;BME280;56301;56.864;60.554;2022-11-21T00:36:10;98808.81;;;25.26;36.08
69187;BME280;56301;56.864;60.554;2022-11-21T00:38:32;98801.50;;;25.26;35.89
69187;BME280;56301;56.864;60.554;2022-11-21T00:40:55;98807.59;;;25.28;35.54
69187;BME280;56301;56.864;60.554;2022-11-21T00:43:17;98807.59;;;25.28;35.60
69187;BME280;56301;56.864;60.554;2022-11-21T00:45:39;98813.84;;;25.29;36.58
69187;BME280;56301;56.864;60.554;2022-11-21T00:48:02;98810.47;;;25.27;36.51
69187;BME280;56301;56.864;60.554;2022-11-21T00:50:24;98805.06;;;25.27;36.09
69187;BME280;56301;56.864;60.554;2022-11-21T00:52:47;98799.84;;;25.25;36.76
69187;BME280;56301;56.864;60.554;2022-11-21T00:55:09;98794.59;;;25.24;36.67
69187;BME280;56301;56.864;60.554;2022-11-21T00:57:31;98790.88;;;25.25;35.46
69187;BME280;56301;56.864;60.554;2022-11-21T00:59:54;98794.22;;;25.27;35.83
69187;BME280;56301;56.864;60.554;2022-11-21T01:02:16;98796.09;;;25.26;35.83
69187;BME280;56301;56.864;60.554;2022-11-21T01:04:38;98796.94;;;25.27;35.61
69187;BME280;56301;56.864;60.554;2022-11-21T01:07:01;98797.59;;;25.29;35.27
69187;BME280;56301;56.864;60.554;2022-11-21T01:09:24;98794.06;;;25.28;35.71
69187;BME280;56301;56.864;60.554;2022-11-21T01:11:46;98775.28;;;25.27;35.99
69187;BME280;56301;56.864;60.554;2022-11-21T01:14:09;98787.81;;;25.28;36.13
69187;BME280;56301;56.864;60.554;2022-11-21T01:16:31;98793.22;;;25.28;36.03
69187;BME280;56301;56.864;60.554;2022-11-21T01:18:54;98789.00;;;25.25;36.30
69187;BME280;56301;56.864;60.554;2022-11-21T01:21:21;98778.81;;;25.27;35.93
69187;BME280;56301;56.864;60.554;2022-11-21T01:23:44;98781.72;;;25.26;36.09
69187;BME280;56301;56.864;60.554;2022-11-21T01:26:08;98780.69;;;25.27;35.73
69187;BME280;56301;56.864;60.554;2022-11-21T01:28:31;98782.38;;;25.28;35.89
69187;BME280;56301;56.864;60.554;2022-11-21T01:30:54;98786.94;;;25.27;36.64
69187;BME280;56301;56.864;60.554;2022-11-21T01:33:16;98779.69;;;25.28;36.09
69187;BME280;56301;56.864;60.554;2022-11-21T01:35:39;98776.56;;;25.31;35.73
69187;BME280;56301;56.864;60.554;2022-11-21T01:38:01;98786.41;;;25.32;35.33
69187;BME280;56301;56.864;60.554;2022-11-21T01:40:24;98775.56;;;25.32;36.35
69187;BME280;56301;56.864;60.554;2022-11-21T01:42:53;98788.81;;;25.27;36.43
69187;BME280;56301;56.864;60.554;2022-11-21T01:48:00;98781.91;;;25.24;36.27
69187;BME280;56301;56.864;60.554;2022-11-21T01:50:22;98788.53;;;25.21;36.73
69187;BME280;56301;56.864;60.554;2022-11-21T01:52:44;98786.47;;;25.24;36.94
69187;BME280;56301;56.864;60.554;2022-11-21T01:55:08;98787.50;;;25.23;36.10
69187;BME280;56301;56.864;60.554;2022-11-21T01:57:33;98777.81;;;25.28;36.52
69187;BME280;56301;56.864;60.554;2022-11-21T02:00:06;98778.19;;;25.25;36.59
69187;BME280;56301;56.864;60.554;2022-11-21T02:02:30;98785.63;;;25.23;36.54
69187;BME280;56301;56.864;60.554;2022-11-21T02:04:54;98781.44;;;25.20;35.72
69187;BME280;56301;56.864;60.554;2022-11-21T02:07:18;98773.22;;;25.29;36.71
69187;BME280;56301;56.864;60.554;2022-11-21T02:09:44;98773.59;;;25.26;36.89
69187;BME280;56301;56.864;60.554;2022-11-21T02:12:09;98773.97;;;25.23;36.64
69187;BME280;56301;56.864;60.554;2022-11-21T02:14:32;98768.91;;;25.19;36.88
69187;BME280;56301;56.864;60.554;2022-11-21T02:16:57;98769.47;;;25.15;36.90
69187;BME280;56301;56.864;60.554;2022-11-21T02:19:37;98764.28;;;25.13;37.99
69187;BME280;56301;56.864;60.554;2022-11-21T02:22:09;98768.91;;;25.19;36.64
69187;BME280;56301;56.864;60.554;2022-11-21T02:24:39;98766.22;;;25.19;36.90
69187;BME280;56301;56.864;60.554;2022-11-21T02:27:03;98773.13;;;25.22;36.46
69187;BME280;56301;56.864;60.554;2022-11-21T02:29:26;98763.34;;;25.21;37.19
69187;BME280;56301;56.864;60.554;2022-11-21T02:31:48;98762.28;;;25.22;36.94
69187;BME280;56301;56.864;60.554;2022-11-21T02:34:11;98754.06;;;25.15;37.28
69187;BME280;56301;56.864;60.554;2022-11-21T02:36:35;98746.31;;;25.12;37.31
69187;BME280;56301;56.864;60.554;2022-11-21T02:39:00;98749.03;;;25.12;37.47
69187;BME280;56301;56.864;60.554;2022-11-21T02:41:23;98746.31;;;25.12;37.66
69187;BME280;56301;56.864;60.554;2022-11-21T02:43:53;98747.19;;;25.13;37.66
69187;BME280;56301;56.864;60.554;2022-11-21T02:46:18;98743.81;;;25.11;37.40
69187;BME280;56301;56.864;60.554;2022-11-21T02:48:40;98737.56;;;25.10;37.17
69187;BME280;56301;56.864;60.554;2022-11-21T02:51:03;98738.88;;;25.14;37.00
69187;BME280;56301;56.864;60.554;2022-11-21T02:53:25;98735.69;;;25.11;37.31
69187;BME280;56301;56.864;60.554;2022-11-21T02:55:48;98726.72;;;25.10;37.62
69187;BME280;56301;56.864;60.554;2022-11-21T02:58:10;98728.69;;;25.16;37.92
69187;BME280;56301;56.864;60.554;2022-11-21T03:00:35;98722.72;;;25.21;37.93
69187;BME280;56301;56.864;60.554;2022-11-21T03:02:57;98720.94;;;25.13;38.25
69187;BME280;56301;56.864;60.554;2022-11-21T03:05:20;98718.03;;;25.15;37.66
69187;BME280;56301;56.864;60.554;2022-11-21T03:07:43;98720.19;;;25.19;37.62
69187;BME280;56301;56.864;60.554;2022-11-21T03:10:06;98716.47;;;25.20;38.51
69187;BME280;56301;56.864;60.554;2022-11-21T03:12:28;98719.16;;;25.20;37.50
69187;BME280;56301;56.864;60.554;2022-11-21T03:14:51;98709.34;;;25.19;37.00
69187;BME280;56301;56.864;60.554;2022-11-21T03:17:13;98715.44;;;25.21;37.88
69187;BME280;56301;56.864;60.554;2022-11-21T03:19:35;98707.31;;;25.21;37.29
69187;BME280;56301;56.864;60.554;2022-11-21T03:21:58;98710.00;;;25.21;37.78
69187;BME280;56301;56.864;60.554;2022-11-21T03:24:20;98699.44;;;25.27;38.38
69187;BME280;56301;56.864;60.554;2022-11-21T03:26:43;98701.63;;;25.16;37.71
69187;BME280;56301;56.864;60.554;2022-11-21T03:29:05;98641.41;;;25.14;38.15
69187;BME280;56301;56.864;60.554;2022-11-21T03:31:28;98687.88;;;25.03;38.31
69187;BME280;56301;56.864;60.554;2022-11-21T03:33:50;98686.94;;;24.96;37.66
69187;BME280;56301;56.864;60.554;2022-11-21T03:36:12;98679.56;;;24.90;37.44
69187;BME280;56301;56.864;60.554;2022-11-21T03:38:35;98685.34;;;24.87;37.77
69187;BME280;56301;56.864;60.554;2022-11-21T03:41:01;98680.13;;;24.85;37.36
69187;BME280;56301;56.864;60.554;2022-11-21T03:43:24;98682.16;;;24.83;37.79
69187;BME280;56301;56.864;60.554;2022-11-21T03:45:46;98675.06;;;24.82;37.64
69187;BME280;56301;56.864;60.554;2022-11-21T03:48:08;98670.88;;;24.80;37.45
69187;BME280;56301;56.864;60.554;2022-11-21T03:50:31;98675.44;;;24.79;37.73
69187;BME280;56301;56.864;60.554;2022-11-21T03:52:53;98671.06;;;24.78;37.95
69187;BME280;56301;56.864;60.554;2022-11-21T03:55:16;98671.28;;;24.77;37.87
69187;BME280;56301;56.864;60.554;2022-11-21T03:57:38;98672.28;;;24.76;37.50
69187;BME280;56301;56.864;60.554;2022-11-21T04:00:01;98669.56;;;24.76;37.59
69187;BME280;56301;56.864;60.554;2022-11-21T04:02:23;98667.91;;;24.74;37.48
69187;BME280;56301;56.864;60.554;2022-11-21T04:04:45;98668.72;;;24.75;36.88
69187;BME280;56301;56.864;60.554;2022-11-21T04:07:08;98661.66;;;24.74;37.47
69187;BME280;56301;56.864;60.554;2022-11-21T04:09:31;98663.69;;;24.72;37.38
69187;BME280;56301;56.864;60.554;2022-11-21T04:11:53;98662.84;;;24.71;37.46
69187;BME280;56301;56.864;60.554;2022-11-21T04:14:15;98666.59;;;24.70;36.84
69187;BME280;56301;56.864;60.554;2022-11-21T04:16:38;98668.25;;;24.71;37.13
69187;BME280;56301;56.864;60.554;2022-11-21T04:19:00;98663.06;;;24.70;37.12
69187;BME280;56301;56.864;60.554;2022-11-21T04:21:23;98664.91;;;24.69;36.79
69187;BME280;56301;56.864;60.554;2022-11-21T04:23:45;98657.81;;;24.68;36.97
69187;BME280;56301;56.864;60.554;2022-11-21T04:26:07;98656.97;;;24.68;37.11
69187;BME280;56301;56.864;60.554;2022-11-21T04:28:30;98658.84;;;24.67;37.21
69187;BME280;56301;56.864;60.554;2022-11-21T04:30:52;98663.41;;;24.67;37.50
69187;BME280;56301;56.864;60.554;2022-11-21T04:33:15;98666.97;;;24.67;37.20
69187;BME280;56301;56.864;60.554;2022-11-21T04:35:38;98665.28;;;24.66;36.80
69187;BME280;56301;56.864;60.554;2022-11-21T04:38:00;98669.00;;;24.65;36.96
69187;BME280;56301;56.864;60.554;2022-11-21T04:40:22;98663.59;;;24.65;36.86
69187;BME280;56301;56.864;60.554;2022-11-21T04:42:45;98656.50;;;24.64;36.98
69187;BME280;56301;56.864;60.554;2022-11-21T04:45:08;98661.91;;;24.64;37.17
69187;BME280;56301;56.864;60.554;2022-11-21T04:47:31;98658.19;;;24.65;37.17
69187;BME280;56301;56.864;60.554;2022-11-21T04:49:53;98659.22;;;24.64;37.09
69187;BME280;56301;56.864;60.554;2022-11-21T04:52:16;98665.28;;;24.66;37.02
69187;BME280;56301;56.864;60.554;2022-11-21T04:54:38;98660.03;;;24.65;37.48
69187;BME280;56301;56.864;60.554;2022-11-21T04:57:01;98654.47;;;24.66;36.80
69187;BME280;56301;56.864;60.554;2022-11-21T04:59:23;98658.19;;;24.65;37.11
69187;BME280;56301;56.864;60.554;2022-11-21T05:01:45;98649.22;;;24.65;36.58
69187;BME280;56301;56.864;60.554;2022-11-21T05:04:08;98659.22;;;24.64;36.83
69187;BME280;56301;56.864;60.554;2022-11-21T05:06:30;98648.38;;;24.64;36.61
69187;BME280;56301;56.864;60.554;2022-11-21T05:08:53;98652.97;;;24.64;36.58
69187;BME280;56301;56.864;60.554;2022-11-21T05:11:15;98651.09;;;24.64;36.43
69187;BME280;56301;56.864;60.554;2022-11-21T05:13:38;98651.28;;;24.63;36.75
69187;BME280;56301;56.864;60.554;2022-11-21T05:16:00;98652.97;;;24.64;37.06
69187;BME280;56301;56.864;60.554;2022-11-21T05:18:22;98655.88;;;24.62;36.72
69187;BME280;56301;56.864;60.554;2022-11-21T05:20:45;98659.22;;;24.64;36.62
69187;BME280;56301;56.864;60.554;2022-11-21T05:23:07;98654.84;;;24.63;36.81
69187;BME280;56301;56.864;60.554;2022-11-21T05:25:30;98649.41;;;24.63;36.97
69187;BME280;56301;56.864;60.554;2022-11-21T05:27:54;98649.41;;;24.63;37.01
69187;BME280;56301;56.864;60.554;2022-11-21T05:30:17;98649.41;;;24.63;36.44
69187;BME280;56301;56.864;60.554;2022-11-21T05:32:39;98644.00;;;24.63;36.45
69187;BME280;56301;56.864;60.554;2022-11-21T05:35:01;98649.41;;;24.63;36.73
69187;BME280;56301;56.864;60.554;2022-11-21T05:37:24;98647.56;;;24.64;37.02
69187;BME280;56301;56.864;60.554;2022-11-21T05:39:46;98651.09;;;24.64;36.42
69187;BME280;56301;56.864;60.554;2022-11-21T05:42:09;98644.00;;;24.63;36.72
69187;BME280;56301;56.864;60.554;2022-11-21T05:44:31;98644.84;;;24.64;36.79
69187;BME280;56301;56.864;60.554;2022-11-21T05:46:53;98621.34;;;24.64;36.71
69187;BME280;56301;56.864;60.554;2022-11-21T05:49:16;98635.06;;;24.63;36.53
69187;BME280;56301;56.864;60.554;2022-11-21T05:51:38;98642.81;;;24.66;36.28
69187;BME280;56301;56.864;60.554;2022-11-21T05:54:01;98653.69;;;24.72;36.93
69187;BME280;56301;56.864;60.554;2022-11-21T05:56:23;98657.63;;;24.70;36.16
69187;BME280;56301;56.864;60.554;2022-11-21T05:58:46;98646.63;;;24.71;35.91
69187;BME280;56301;56.864;60.554;2022-11-21T06:01:09;98641.22;;;24.71;35.32
69187;BME280;56301;56.864;60.554;2022-11-21T06:03:33;98638.34;;;24.73;35.12
69187;BME280;56301;56.864;60.554;2022-11-21T06:08:21;98627.19;;;24.83;35.35
69187;BME280;56301;56.864;60.554;2022-11-21T06:10:44;98626.28;;;24.76;35.46
69187;BME280;56301;56.864;60.554;2022-11-21T06:13:06;98624.50;;;24.83;35.24
69187;BME280;56301;56.864;60.554;2022-11-21T06:15:28;98624.03;;;24.79;35.30
69187;BME280;56301;56.864;60.554;2022-11-21T06:17:51;98624.31;;;24.84;35.00
69187;BME280;56301;56.864;60.554;2022-11-21T06:20:13;98617.69;;;24.87;34.91
69187;BME280;56301;56.864;60.554;2022-11-21T06:22:36;98614.81;;;24.88;35.23
69187;BME280;56301;56.864;60.554;2022-11-21T06:24:58;98616.38;;;24.83;35.14
69187;BME280;56301;56.864;60.554;2022-11-21T06:27:21;98626.28;;;24.76;34.68
69187;BME280;56301;56.864;60.554;2022-11-21T06:29:43;98617.22;;;24.68;34.11
69187;BME280;56301;56.864;60.554;2022-11-21T06:32:07;98602.03;;;24.67;33.91
69187;BME280;56301;56.864;60.554;2022-11-21T06:34:29;98610.13;;;24.82;33.07
69187;BME280;56301;56.864;60.554;2022-11-21T06:36:52;98605.63;;;25.04;32.40
69187;BME280;56301;56.864;60.554;2022-11-21T06:39:14;98614.19;;;25.23;32.77
69187;BME280;56301;56.864;60.554;2022-11-21T06:41:36;98610.91;;;25.27;32.58
69187;BME280;56301;56.864;60.554;2022-11-21T06:43:59;98606.22;;;25.36;32.14
69187;BME280;56301;56.864;60.554;2022-11-21T06:46:21;98601.16;;;25.48;32.33
69187;BME280;56301;56.864;60.554;2022-11-21T06:48:43;98597.75;;;25.60;31.85
69187;BME280;56301;56.864;60.554;2022-11-21T06:51:07;98593.22;;;25.67;31.90
69187;BME280;56301;56.864;60.554;2022-11-21T06:53:29;98594.97;;;25.75;31.11
69187;BME280;56301;56.864;60.554;2022-11-21T06:55:52;98595.06;;;25.82;31.19
69187;BME280;56301;56.864;60.554;2022-11-21T06:58:14;98590.94;;;25.86;30.44
69187;BME280;56301;56.864;60.554;2022-11-21T07:00:37;98588.44;;;25.91;31.67
69187;BME280;56301;56.864;60.554;2022-11-21T07:02:59;98598.53;;;25.97;31.32
69187;BME280;56301;56.864;60.554;2022-11-21T07:05:22;98601.47;;;26.02;30.63
69187;BME280;56301;56.864;60.554;2022-11-21T07:07:44;98594.44;;;26.08;31.13
69187;BME280;56301;56.864;60.554;2022-11-21T07:10:07;98593.84;;;26.12;31.04
69187;BME280;56301;56.864;60.554;2022-11-21T07:12:30;98600.16;;;26.20;31.46
69187;BME280;56301;56.864;60.554;2022-11-21T07:14:52;98587.47;;;26.27;31.39
69187;BME280;56301;56.864;60.554;2022-11-21T07:17:14;98590.41;;;26.32;31.00
69187;BME280;56301;56.864;60.554;2022-11-21T07:19:37;98590.03;;;26.35;31.75
69187;BME280;56301;56.864;60.554;2022-11-21T07:21:59;98578.56;;;26.39;30.89
69187;BME280;56301;56.864;60.554;2022-11-21T07:24:21;98580.50;;;26.46;31.58
69187;BME280;56301;56.864;60.554;2022-11-21T07:26:44;98587.44;;;26.48;31.05
69187;BME280;56301;56.864;60.554;2022-11-21T07:29:06;98591.03;;;26.55;31.56
69187;BME280;56301;56.864;60.554;2022-11-21T07:31:29;98586.88;;;26.59;30.97
69187;BME280;56301;56.864;60.554;2022-11-21T07:33:51;98590.22;;;26.61;31.28
69187;BME280;56301;56.864;60.554;2022-11-21T07:36:13;98587.09;;;26.64;31.40
69187;BME280;56301;56.864;60.554;2022-11-21T07:38:36;98584.00;;;26.68;31.20
69187;BME280;56301;56.864;60.554;2022-11-21T07:40:58;98581.72;;;26.71;30.24
69187;BME280;56301;56.864;60.554;2022-11-21T07:43:21;98582.16;;;26.75;31.23
69187;BME280;56301;56.864;60.554;2022-11-21T07:45:43;98573.63;;;26.78;31.11
69187;BME280;56301;56.864;60.554;2022-11-21T07:48:06;98572.16;;;26.82;30.70
69187;BME280;56301;56.864;60.554;2022-11-21T07:50:28;98552.75;;;26.85;30.71
69187;BME280;56301;56.864;60.554;2022-11-21T07:52:55;98562.38;;;26.87;30.88
69187;BME280;56301;56.864;60.554;2022-11-21T07:55:18;98550.25;;;26.90;30.46
69187;BME280;56301;56.864;60.554;2022-11-21T07:57:40;98566.16;;;26.93;30.74
69187;BME280;56301;56.864;60.554;2022-11-21T08:00:03;98561.56;;;26.94;30.36
69187;BME280;56301;56.864;60.554;2022-11-21T08:02:27;98550.50;;;26.95;30.81
69187;BME280;56301;56.864;60.554;2022-11-21T08:04:49;98548.81;;;26.94;30.39
69187;BME280;56301;56.864;60.554;2022-11-21T08:07:13;98547.78;;;26.95;30.59
69187;BME280;56301;56.864;60.554;2022-11-21T08:09:35;98556.78;;;26.96;30.84
69187;BME280;56301;56.864;60.554;2022-11-21T08:11:58;98541.97;;;26.98;30.35
69187;BME280;56301;56.864;60.554;2022-11-21T08:14:20;98543.63;;;26.99;30.05
69187;BME280;56301;56.864;60.554;2022-11-21T08:16:43;98536.09;;;27.01;30.58
69187;BME280;56301;56.864;60.554;2022-11-21T08:19:05;98547.38;;;27.05;30.52
69187;BME280;56301;56.864;60.554;2022-11-21T08:21:28;98539.88;;;27.07;29.59
69187;BME280;56301;56.864;60.554;2022-11-21T08:23:50;98538.84;;;27.08;29.54
69187;BME280;56301;56.864;60.554;2022-11-21T08:26:13;98544.50;;;27.06;30.15
69187;BME280;56301;56.864;60.554;2022-11-21T08:28:35;98541.78;;;27.06;30.27
69187;BME280;56301;56.864;60.554;2022-11-21T08:30:58;98543.84;;;27.04;29.85
69187;BME280;56301;56.864;60.554;2022-11-21T08:33:20;98533.19;;;27.03;30.27
69187;BME280;56301;56.864;60.554;2022-11-21T08:35:42;98534.44;;;27.00;30.07
69187;BME280;56301;56.864;60.554;2022-11-21T08:38:05;98526.06;;;26.95;30.95
69187;BME280;56301;56.864;60.554;2022-11-21T08:40:28;98528.97;;;26.94;30.83
69187;BME280;56301;56.864;60.554;2022-11-21T08:42:57;98525.84;;;26.90;30.79
69187;BME280;56301;56.864;60.554;2022-11-21T08:45:19;98523.34;;;26.88;31.00
69187;BME280;56301;56.864;60.554;2022-11-21T08:47:42;98513.31;;;26.89;30.75
69187;BME280;56301;56.864;60.554;2022-11-21T08:50:04;98512.06;;;26.92;30.85
69187;BME280;56301;56.864;60.554;2022-11-21T08:52:27;98520.00;;;26.93;29.97
69187;BME280;56301;56.864;60.554;2022-11-21T08:54:49;98517.28;;;26.93;30.25
69187;BME280;56301;56.864;60.554;2022-11-21T08:57:12;98516.22;;;26.94;30.26
69187;BME280;56301;56.864;60.554;2022-11-21T08:59:34;98525.25;;;26.95;30.76
69187;BME280;56301;56.864;60.554;2022-11-21T09:01:57;98513.94;;;26.91;30.16
69187;BME280;56301;56.864;60.554;2022-11-21T09:04:19;98518.75;;;26.89;31.29
69187;BME280;56301;56.864;60.554;2022-11-21T09:06:42;98529.38;;;26.84;30.69
69187;BME280;56301;56.864;60.554;2022-11-21T09:09:04;98517.25;;;26.80;31.22
69187;BME280;56301;56.864;60.554;2022-11-21T09:11:27;98521.38;;;26.76;30.26
69187;BME280;56301;56.864;60.554;2022-11-21T09:13:50;98523.88;;;26.71;30.64
69187;BME280;56301;56.864;60.554;2022-11-21T09:16:13;98531.81;;;26.66;30.37
69187;BME280;56301;56.864;60.554;2022-11-21T09:18:36;98527.59;;;26.56;30.91
69187;BME280;56301;56.864;60.554;2022-11-21T09:20:58;98526.03;;;26.40;30.72
69187;BME280;56301;56.864;60.554;2022-11-21T09:23:20;98525.53;;;26.30;30.86
69187;BME280;56301;56.864;60.554;2022-11-21T09:25:43;98528.41;;;26.22;30.06
69187;BME280;56301;56.864;60.554;2022-11-21T09:28:06;98519.41;;;26.15;30.64
69187;BME280;56301;56.864;60.554;2022-11-21T09:30:29;98517.25;;;26.10;30.38
69187;BME280;56301;56.864;60.554;2022-11-21T09:32:51;98523.94;;;26.08;30.67
69187;BME280;56301;56.864;60.554;2022-11-21T09:35:13;98526.41;;;26.03;30.13
69187;BME280;56301;56.864;60.554;2022-11-21T09:37:36;98527.81;;;25.99;31.04
69187;BME280;56301;56.864;60.554;2022-11-21T09:39:59;98524.66;;;25.95;30.47
69187;BME280;56301;56.864;60.554;2022-11-21T09:47:31;98517.09;;;25.84;30.50
69187;BME280;56301;56.864;60.554;2022-11-21T09:49:59;98513.75;;;25.82;30.23
69187;BME280;56301;56.864;60.554;2022-11-21T09:52:23;98518.69;;;25.78;30.53
69187;BME280;56301;56.864;60.554;2022-11-21T09:54:49;98513.66;;;25.75;30.64
69187;BME280;56301;56.864;60.554;2022-11-21T09:57:15;98501.53;;;25.71;30.79
69187;BME280;56301;56.864;60.554;2022-11-21T09:59:39;98500.69;;;25.70;30.92
69187;BME280;56301;56.864;60.554;2022-11-21T10:02:02;98510.84;;;25.62;31.07
69187;BME280;56301;56.864;60.554;2022-11-21T10:04:33;98508.97;;;25.62;31.26
69187;BME280;56301;56.864;60.554;2022-11-21T10:12:03;98488.94;;;25.63;31.11
69187;BME280;56301;56.864;60.554;2022-11-21T10:17:03;98497.69;;;25.59;31.17
69187;BME280;56301;56.864;60.554;2022-11-21T10:19:51;98503.47;;;25.56;30.38
69187;BME280;56301;56.864;60.554;2022-11-21T10:27:33;98495.94;;;25.51;31.58
69187;BME280;56301;56.864;60.554;2022-11-21T10:30:00;98491.75;;;25.49;32.04
69187;BME280;56301;56.864;60.554;2022-11-21T10:34:46;98497.59;;;25.45;31.94
69187;BME280;56301;56.864;60.554;2022-11-21T10:37:25;98486.94;;;25.44;32.16
69187;BME280;56301;56.864;60.554;2022-11-21T10:39:49;98477.53;;;25.40;30.35
69187;BME280;56301;56.864;60.554;2022-11-21T10:42:17;98479.41;;;25.39;31.62
69187;BME280;56301;56.864;60.554;2022-11-21T10:44:43;98472.09;;;25.40;31.93
69187;BME280;56301;56.864;60.554;2022-11-21T10:47:16;98475.84;;;25.39;32.30
69187;BME280;56301;56.864;60.554;2022-11-21T10:49:39;98477.06;;;25.36;31.94
69187;BME280;56301;56.864;60.554;2022-11-21T10:52:09;98475.41;;;25.35;32.18
69187;BME280;56301;56.864;60.554;2022-11-21T10:54:32;98475.41;;;25.35;32.32
69187;BME280;56301;56.864;60.554;2022-11-21T10:57:15;98476.25;;;25.36;32.78
69187;BME280;56301;56.864;60.554;2022-11-21T10:59:38;98475.56;;;25.34;32.91
69187;BME280;56301;56.864;60.554;2022-11-21T11:02:23;98467.00;;;25.30;31.46
69187;BME280;56301;56.864;60.554;2022-11-21T11:04:43;98488.66;;;25.30;32.44
69187;BME280;56301;56.864;60.554;2022-11-21T11:07:39;98479.72;;;25.30;32.04
69187;BME280;56301;56.864;60.554;2022-11-21T11:12:36;98482.81;;;25.27;32.97
69187;BME280;56301;56.864;60.554;2022-11-21T11:14:58;98480.31;;;25.25;32.60
69187;BME280;56301;56.864;60.554;2022-11-21T11:17:30;98478.63;;;25.24;33.06
69187;BME280;56301;56.864;60.554;2022-11-21T11:22:42;98475.28;;;25.22;33.03
69187;BME280;56301;56.864;60.554;2022-11-21T11:25:04;98479.03;;;25.21;32.89
69187;BME280;56301;56.864;60.554;2022-11-21T11:27:27;98483.78;;;25.19;33.44
69187;BME280;56301;56.864;60.554;2022-11-21T11:29:50;98493.78;;;25.18;33.05
69187;BME280;56301;56.864;60.554;2022-11-21T11:34:37;98488.94;;;25.14;33.58
69187;BME280;56301;56.864;60.554;2022-11-21T11:37:26;98498.94;;;25.13;33.14
69187;BME280;56301;56.864;60.554;2022-11-21T11:44:43;98488.84;;;25.07;32.94
69187;BME280;56301;56.864;60.554;2022-11-21T11:47:15;98488.00;;;25.07;32.55
69187;BME280;56301;56.864;60.554;2022-11-21T11:49:44;98487.19;;;25.06;33.18
69187;BME280;56301;56.864;60.554;2022-11-21T11:52:08;98486.50;;;25.04;32.85
69187;BME280;56301;56.864;60.554;2022-11-21T11:54:44;98484.84;;;25.03;32.47
69187;BME280;56301;56.864;60.554;2022-11-21T11:57:08;98487.63;;;25.10;33.23
69187;BME280;56301;56.864;60.554;2022-11-21T11:59:32;98489.69;;;25.08;33.83
69187;BME280;56301;56.864;60.554;2022-11-21T12:02:17;98482.13;;;25.03;32.62
69187;BME280;56301;56.864;60.554;2022-11-21T12:04:46;98469.81;;;25.01;33.24
69187;BME280;56301;56.864;60.554;2022-11-21T12:17:09;98482.91;;;24.97;33.92
69187;BME280;56301;56.864;60.554;2022-11-21T12:19:32;98479.16;;;24.98;33.48
69187;BME280;56301;56.864;60.554;2022-11-21T12:21:55;98471.25;;;24.96;33.26
69187;BME280;56301;56.864;60.554;2022-11-21T12:24:18;98473.13;;;24.96;32.97
69187;BME280;56301;56.864;60.554;2022-11-21T12:36:45;98484.19;;;25.01;33.93
69187;BME280;56301;56.864;60.554;2022-11-21T12:44:34;98474.84;;;25.04;34.17
69187;BME280;56301;56.864;60.554;2022-11-21T12:49:37;98485.88;;;25.02;34.10
69187;BME280;56301;56.864;60.554;2022-11-21T12:54:34;98482.78;;;25.05;33.83
69187;BME280;56301;56.864;60.554;2022-11-21T12:57:04;98474.66;;;25.05;33.73
69187;BME280;56301;56.864;60.554;2022-11-21T12:59:30;98477.34;;;25.05;34.51
69187;BME280;56301;56.864;60.554;2022-11-21T13:02:01;98477.56;;;25.04;34.43
69187;BME280;56301;56.864;60.554;2022-11-21T13:04:27;98481.09;;;25.04;33.41
69187;BME280;56301;56.864;60.554;2022-11-21T13:06:51;98478.41;;;25.04;34.08
69187;BME280;56301;56.864;60.554;2022-11-21T13:09:15;98472.97;;;25.04;34.04
69187;BME280;56301;56.864;60.554;2022-11-21T13:16:33;98469.22;;;25.05;34.13
69187;BME280;56301;56.864;60.554;2022-11-21T13:18:57;98466.53;;;25.05;33.65
69187;BME280;56301;56.864;60.554;2022-11-21T13:21:41;98460.09;;;25.06;33.79
69187;BME280;56301;56.864;60.554;2022-11-21T13:24:04;98474.25;;;25.08;33.64
69187;BME280;56301;56.864;60.554;2022-11-21T13:28:49;98453.66;;;25.07;33.30
69187;BME280;56301;56.864;60.554;2022-11-21T13:31:25;98461.31;;;25.04;33.99
69187;BME280;56301;56.864;60.554;2022-11-21T13:33:48;98461.53;;;25.02;34.08
69187;BME280;56301;56.864;60.554;2022-11-21T13:36:12;98457.13;;;25.01;34.30
69187;BME280;56301;56.864;60.554;2022-11-21T13:49:19;98450.66;;;25.17;35.21
69187;BME280;56301;56.864;60.554;2022-11-21T13:56:39;98450.44;;;25.18;37.49
69187;BME280;56301;56.864;60.554;2022-11-21T14:04:22;98454.97;;;25.11;38.91
69187;BME280;56301;56.864;60.554;2022-11-21T14:06:47;98453.00;;;25.05;38.82
69187;BME280;56301;56.864;60.554;2022-11-21T14:11:35;98452.53;;;25.02;38.50